createdAt,value
2023-02-20T00:00:47.261Z,87.15
2023-02-20T00:01:47.248Z,87.05
2023-02-20T00:02:47.264Z,87.36
2023-02-20T00:03:47.246Z,87.67
2023-02-20T00:04:47.238Z,87.57
2023-02-20T00:05:47.221Z,87.87
2023-02-20T00:06:47.189Z,86.43
2023-02-20T00:07:47.221Z,87.36
2023-02-20T00:08:47.178Z,87.57
2023-02-20T00:09:47.170Z,87.57
2023-02-20T00:10:47.154Z,87.57
2023-02-20T00:11:47.181Z,87.71
2023-02-20T00:12:47.173Z,87.09
2023-02-20T00:13:47.127Z,87.44
2023-02-20T00:14:47.115Z,87.54
2023-02-20T00:15:47.142Z,87.92
2023-02-20T00:16:47.091Z,87.81
2023-02-20T00:17:47.106Z,87.60
2023-02-20T00:18:47.079Z,87.65
2023-02-20T00:19:47.077Z,87.71
2023-02-20T00:20:47.051Z,87.71
2023-02-20T00:21:47.052Z,87.85
2023-02-20T00:22:47.051Z,88.06
2023-02-20T00:23:47.031Z,87.85
2023-02-20T00:24:47.006Z,88.57
2023-02-20T00:25:47.002Z,87.75
2023-02-20T00:26:47.006Z,87.85
2023-02-20T00:27:47.015Z,87.85
2023-02-20T00:28:47.000Z,88.37
2023-02-20T00:29:46.980Z,88.57
2023-02-20T00:30:47.005Z,88.37
2023-02-20T00:31:46.983Z,87.85
2023-02-20T00:32:46.948Z,87.90
2023-02-20T00:33:46.991Z,87.99
2023-02-20T00:34:46.914Z,88.17
2023-02-20T00:35:46.909Z,88.51
2023-02-20T00:36:46.901Z,88.51
2023-02-20T00:37:46.903Z,87.90
2023-02-20T00:38:46.877Z,87.75
2023-02-20T00:39:46.877Z,88.26
2023-02-20T00:40:46.861Z,88.41
2023-02-20T00:41:46.850Z,88.10
2023-02-20T00:42:46.844Z,87.59
2023-02-20T00:43:46.842Z,88.20
2023-02-20T00:44:46.836Z,88.10
2023-02-20T00:45:46.810Z,88.51
2023-02-20T00:46:46.881Z,87.99
2023-02-20T00:47:46.815Z,87.90
2023-02-20T00:48:46.777Z,87.79
2023-02-20T00:49:46.762Z,87.79
2023-02-20T00:50:46.775Z,87.69
2023-02-20T00:51:46.739Z,87.99
2023-02-20T00:52:46.741Z,88.31
2023-02-20T00:53:46.750Z,87.59
2023-02-20T00:54:46.726Z,87.52
2023-02-20T00:55:46.734Z,87.48
2023-02-20T00:56:46.695Z,87.52
2023-02-20T00:57:46.708Z,87.32
2023-02-20T00:58:46.688Z,87.52
2023-02-20T00:59:46.702Z,86.18
2023-02-20T01:00:46.663Z,86.45
2023-02-20T01:01:46.682Z,86.15
2023-02-20T01:02:46.665Z,86.45
2023-02-20T01:03:46.649Z,86.04
2023-02-20T01:04:46.653Z,86.04
2023-02-20T01:05:46.621Z,86.24
2023-02-20T01:06:46.612Z,85.94
2023-02-20T01:07:46.623Z,86.35
2023-02-20T01:08:46.589Z,86.45
2023-02-20T01:09:47.596Z,86.55
2023-02-20T01:10:46.569Z,86.35
2023-02-20T01:11:46.562Z,85.94
2023-02-20T01:12:46.574Z,86.24
2023-02-20T01:13:46.529Z,86.45
2023-02-20T01:14:46.527Z,86.29
2023-02-20T01:15:46.542Z,86.35
2023-02-20T01:16:46.518Z,85.83
2023-02-20T01:17:46.494Z,85.94
2023-02-20T01:18:46.505Z,85.67
2023-02-20T01:19:46.478Z,86.08
2023-02-20T01:20:46.468Z,85.42
2023-02-20T01:21:46.454Z,86.15
2023-02-20T01:22:46.441Z,84.80
2023-02-20T01:23:46.457Z,84.59
2023-02-20T01:24:46.459Z,84.39
2023-02-20T01:25:46.426Z,84.91
2023-02-20T01:26:46.421Z,84.59
2023-02-20T01:27:47.413Z,84.43
2023-02-20T01:28:46.403Z,84.94
2023-02-20T01:29:46.389Z,84.53
2023-02-20T01:30:46.364Z,84.43
2023-02-20T01:31:46.514Z,84.43
2023-02-20T01:32:46.371Z,84.39
2023-02-20T01:33:46.351Z,84.39
2023-02-20T01:34:46.334Z,84.80
2023-02-20T01:35:46.339Z,84.19
2023-02-20T01:36:46.310Z,84.19
2023-02-20T01:37:47.315Z,84.29
2023-02-20T01:38:46.296Z,84.70
2023-02-20T01:39:46.275Z,83.98
2023-02-20T01:40:46.285Z,83.87
2023-02-20T01:41:46.271Z,84.01
2023-02-20T01:42:46.282Z,83.71
2023-02-20T01:43:46.249Z,83.61
2023-02-20T01:44:46.242Z,83.71
2023-02-20T01:45:46.232Z,84.01
2023-02-20T01:46:46.310Z,83.61
2023-02-20T01:47:46.224Z,83.61
2023-02-20T01:48:46.208Z,84.84
2023-02-20T01:49:46.190Z,84.53
2023-02-20T01:50:46.201Z,84.64
2023-02-20T01:51:46.170Z,84.01
2023-02-20T01:52:46.168Z,83.67
2023-02-20T01:53:46.159Z,83.26
2023-02-20T01:54:46.145Z,84.08
2023-02-20T01:55:46.153Z,83.87
2023-02-20T01:56:46.166Z,83.67
2023-02-20T01:57:46.131Z,82.95
2023-02-20T01:58:46.145Z,83.40
2023-02-20T01:59:46.095Z,84.08
2023-02-20T02:00:46.134Z,84.22
2023-02-20T02:01:46.126Z,83.61
2023-02-20T02:02:46.082Z,83.71
2023-02-20T02:03:46.061Z,84.01
2023-02-20T02:04:46.062Z,84.84
2023-02-20T02:05:46.049Z,84.94
2023-02-20T02:06:46.034Z,84.78
2023-02-20T02:07:46.112Z,84.57
2023-02-20T02:08:46.020Z,84.57
2023-02-20T02:09:46.015Z,84.36
2023-02-20T02:10:45.997Z,84.57
2023-02-20T02:11:45.986Z,84.47
2023-02-20T02:12:45.992Z,84.88
2023-02-20T02:13:45.980Z,84.72
2023-02-20T02:14:45.945Z,84.51
2023-02-20T02:15:45.944Z,85.54
2023-02-20T02:16:45.924Z,85.85
2023-02-20T02:17:45.931Z,85.75
2023-02-20T02:18:45.913Z,85.71
2023-02-20T02:19:45.902Z,85.60
2023-02-20T02:20:45.887Z,85.39
2023-02-20T02:21:45.940Z,85.81
2023-02-20T02:22:45.871Z,85.19
2023-02-20T02:23:45.873Z,84.57
2023-02-20T02:24:45.843Z,85.09
2023-02-20T02:25:45.845Z,85.81
2023-02-20T02:26:45.841Z,85.85
2023-02-20T02:27:45.822Z,85.39
2023-02-20T02:28:45.802Z,85.30
2023-02-20T02:29:45.817Z,85.81
2023-02-20T02:30:45.871Z,85.71
2023-02-20T02:31:45.844Z,85.39
2023-02-20T02:32:45.787Z,85.95
2023-02-20T02:33:45.769Z,85.91
2023-02-20T02:34:45.755Z,85.75
2023-02-20T02:35:46.749Z,84.72
2023-02-20T02:36:45.726Z,86.12
2023-02-20T02:37:45.716Z,86.05
2023-02-20T02:38:45.737Z,86.16
2023-02-20T02:39:45.707Z,86.05
2023-02-20T02:40:45.688Z,86.26
2023-02-20T02:41:45.684Z,86.22
2023-02-20T02:42:45.678Z,86.12
2023-02-20T02:43:45.697Z,85.81
2023-02-20T02:44:45.661Z,85.95
2023-02-20T02:45:46.676Z,86.12
2023-02-20T02:46:45.645Z,86.26
2023-02-20T02:47:45.631Z,86.16
2023-02-20T02:48:45.637Z,86.32
2023-02-20T02:49:45.632Z,86.36
2023-02-20T02:50:46.617Z,86.68
2023-02-20T02:51:45.670Z,86.16
2023-02-20T02:52:45.589Z,86.26
2023-02-20T02:53:45.577Z,86.36
2023-02-20T02:54:45.562Z,86.47
2023-02-20T02:55:45.580Z,86.68
2023-02-20T02:56:45.609Z,86.68
2023-02-20T02:57:45.552Z,86.47
2023-02-20T02:58:45.525Z,86.41
2023-02-20T02:59:45.518Z,86.26
2023-02-20T03:00:45.580Z,86.05
2023-02-20T03:01:45.500Z,86.57
2023-02-20T03:02:45.532Z,86.16
2023-02-20T03:03:45.474Z,85.02
2023-02-20T03:04:45.462Z,86.05
2023-02-20T03:05:45.456Z,85.64
2023-02-20T03:06:45.482Z,86.41
2023-02-20T03:07:45.454Z,86.16
2023-02-20T03:08:45.429Z,86.05
2023-02-20T03:09:45.425Z,85.95
2023-02-20T03:10:45.424Z,86.30
2023-02-20T03:11:45.408Z,86.10
2023-02-20T03:12:45.390Z,85.85
2023-02-20T03:13:45.380Z,86.26
2023-02-20T03:14:45.394Z,85.75
2023-02-20T03:15:45.381Z,85.85
2023-02-20T03:16:45.412Z,86.16
2023-02-20T03:17:45.349Z,85.75
2023-02-20T03:18:45.338Z,84.81
2023-02-20T03:19:45.325Z,84.72
2023-02-20T03:20:45.331Z,84.61
2023-02-20T03:21:45.302Z,84.72
2023-02-20T03:22:46.305Z,84.51
2023-02-20T03:23:45.292Z,84.72
2023-02-20T03:24:45.307Z,85.13
2023-02-20T03:25:45.401Z,85.13
2023-02-20T03:26:45.287Z,85.13
2023-02-20T03:27:45.243Z,85.54
2023-02-20T03:28:46.269Z,85.13
2023-02-20T03:29:45.234Z,85.02
2023-02-20T03:30:45.247Z,84.51
2023-02-20T03:31:45.309Z,85.37
2023-02-20T03:32:45.208Z,85.89
2023-02-20T03:33:45.196Z,85.58
2023-02-20T03:34:45.205Z,85.47
2023-02-20T03:35:45.181Z,86.10
2023-02-20T03:36:45.173Z,86.30
2023-02-20T03:37:45.153Z,86.30
2023-02-20T03:38:45.148Z,85.89
2023-02-20T03:39:45.197Z,86.30
2023-02-20T03:40:45.134Z,86.61
2023-02-20T03:41:45.118Z,86.20
2023-02-20T03:42:45.108Z,86.61
2023-02-20T03:43:45.110Z,86.61
2023-02-20T03:44:45.110Z,87.13
2023-02-20T03:45:45.086Z,86.65
2023-02-20T03:46:45.076Z,86.51
2023-02-20T03:47:45.070Z,87.54
2023-02-20T03:48:45.066Z,87.65
2023-02-20T03:51:03.530Z,87.54
2023-02-20T03:52:03.545Z,87.65
2023-02-20T03:53:03.562Z,87.65
2023-02-20T03:54:03.548Z,87.74
2023-02-20T03:55:04.659Z,87.54
2023-02-20T03:56:04.640Z,87.54
2023-02-20T03:57:04.669Z,87.74
2023-02-20T03:58:04.721Z,87.44
2023-02-20T03:59:04.621Z,87.74
2023-02-20T04:00:04.613Z,87.85
2023-02-20T04:01:04.633Z,87.65
2023-02-20T04:02:04.641Z,87.74
2023-02-20T04:03:04.570Z,87.85
2023-02-20T04:04:04.562Z,87.79
2023-02-20T04:05:04.588Z,87.74
2023-02-20T04:06:04.568Z,87.54
2023-02-20T04:07:04.548Z,87.74
2023-02-20T04:08:04.552Z,87.85
2023-02-20T04:09:04.536Z,88.16
2023-02-20T04:10:06.728Z,87.95
2023-02-20T04:11:04.519Z,87.74
2023-02-20T04:12:04.492Z,87.85
2023-02-20T04:13:04.465Z,87.54
2023-02-20T04:14:04.468Z,87.65
2023-02-20T04:15:04.465Z,87.65
2023-02-20T04:16:04.454Z,87.74
2023-02-20T04:17:04.455Z,87.95
2023-02-20T04:18:04.430Z,87.65
2023-02-20T04:19:04.473Z,87.29
2023-02-20T04:20:04.395Z,87.44
2023-02-20T04:21:04.419Z,87.29
2023-02-20T04:22:04.404Z,87.50
2023-02-20T04:23:04.396Z,87.40
2023-02-20T04:24:04.366Z,87.40
2023-02-20T04:25:04.346Z,87.50
2023-02-20T04:26:04.359Z,87.40
2023-02-20T04:27:04.330Z,87.60
2023-02-20T04:28:04.332Z,88.02
2023-02-20T04:29:04.317Z,87.60
2023-02-20T04:30:04.359Z,87.92
2023-02-20T04:31:04.335Z,88.37
2023-02-20T04:32:04.341Z,88.32
2023-02-20T04:33:04.282Z,87.92
2023-02-20T04:34:04.253Z,87.81
2023-02-20T04:35:04.253Z,87.95
2023-02-20T04:36:04.253Z,87.92
2023-02-20T04:37:04.227Z,88.06
2023-02-20T04:38:04.229Z,88.22
2023-02-20T04:39:04.241Z,87.92
2023-02-20T04:40:04.187Z,87.60
2023-02-20T04:41:04.175Z,87.50
2023-02-20T04:42:04.188Z,87.71
2023-02-20T04:43:04.172Z,87.65
2023-02-20T04:44:04.183Z,88.06
2023-02-20T04:45:04.157Z,87.74
2023-02-20T04:46:04.218Z,88.16
2023-02-20T04:47:04.147Z,88.06
2023-02-20T04:48:04.118Z,87.81
2023-02-20T04:49:04.117Z,87.74
2023-02-20T04:50:04.152Z,87.60
2023-02-20T04:51:04.091Z,88.16
2023-02-20T04:52:04.093Z,87.71
2023-02-20T04:53:04.072Z,87.65
2023-02-20T04:54:04.092Z,88.37
2023-02-20T04:55:04.110Z,88.26
2023-02-20T04:56:04.043Z,87.74
2023-02-20T04:57:04.032Z,88.12
2023-02-20T04:58:04.014Z,87.71
2023-02-20T04:59:04.013Z,88.02
2023-02-20T05:00:04.012Z,88.22
2023-02-20T05:01:04.012Z,88.02
2023-02-20T05:02:03.977Z,88.47
2023-02-20T05:03:03.977Z,87.74
2023-02-20T05:04:03.962Z,88.22
2023-02-20T05:05:03.940Z,88.26
2023-02-20T05:06:03.965Z,87.92
2023-02-20T05:07:03.938Z,87.92
2023-02-20T05:08:03.927Z,87.81
2023-02-20T05:09:03.912Z,87.74
2023-02-20T05:10:03.922Z,87.95
2023-02-20T05:11:03.923Z,88.37
2023-02-20T05:12:03.887Z,87.71
2023-02-20T05:13:03.897Z,88.12
2023-02-20T05:14:03.861Z,88.02
2023-02-20T05:15:03.857Z,87.92
2023-02-20T05:16:03.900Z,88.12
2023-02-20T05:17:03.849Z,87.74
2023-02-20T05:18:03.839Z,87.40
2023-02-20T05:19:03.822Z,87.29
2023-02-20T05:20:03.798Z,87.50
2023-02-20T05:21:04.815Z,87.40
2023-02-20T05:22:03.798Z,87.50
2023-02-20T05:23:03.797Z,87.60
2023-02-20T05:24:06.463Z,87.81
2023-02-20T05:25:03.782Z,87.50
2023-02-20T05:26:03.772Z,87.66
2023-02-20T05:27:03.747Z,87.46
2023-02-20T05:28:03.762Z,86.47
2023-02-20T05:29:03.724Z,87.08
2023-02-20T05:30:03.722Z,86.94
2023-02-20T05:31:03.716Z,87.71
2023-02-20T05:32:03.718Z,87.92
2023-02-20T05:33:03.686Z,87.87
2023-02-20T05:34:03.654Z,87.60
2023-02-20T05:35:03.654Z,87.40
2023-02-20T05:36:03.647Z,87.29
2023-02-20T05:37:03.624Z,87.40
2023-02-20T05:38:03.631Z,88.02
2023-02-20T05:39:03.617Z,87.71
2023-02-20T05:40:03.616Z,87.50
2023-02-20T05:41:03.573Z,87.71
2023-02-20T05:42:03.578Z,87.92
2023-02-20T05:43:03.568Z,87.74
2023-02-20T05:44:03.580Z,87.95
2023-02-20T05:45:03.587Z,87.92
2023-02-20T05:46:04.594Z,88.32
2023-02-20T05:47:03.595Z,88.22
2023-02-20T05:48:03.559Z,88.32
2023-02-20T05:49:03.529Z,88.22
2023-02-20T05:50:03.510Z,88.16
2023-02-20T05:51:03.476Z,88.68
2023-02-20T05:52:03.482Z,88.57
2023-02-20T05:53:03.510Z,88.89
2023-02-20T05:54:03.479Z,88.89
2023-02-20T05:55:03.472Z,88.89
2023-02-20T05:56:03.442Z,88.89
2023-02-20T05:57:04.422Z,88.78
2023-02-20T05:58:03.471Z,88.26
2023-02-20T05:59:03.461Z,88.37
2023-02-20T06:00:03.443Z,88.16
2023-02-20T06:01:03.446Z,88.06
2023-02-20T06:02:03.378Z,88.26
2023-02-20T06:03:03.393Z,88.16
2023-02-20T06:04:03.446Z,87.95
2023-02-20T06:05:03.385Z,87.95
2023-02-20T06:06:03.363Z,87.85
2023-02-20T06:07:03.359Z,88.26
2023-02-20T06:08:03.343Z,88.16
2023-02-20T06:09:03.360Z,88.26
2023-02-20T06:10:03.317Z,88.16
2023-02-20T06:11:03.290Z,87.74
2023-02-20T06:12:03.305Z,87.85
2023-02-20T06:13:03.289Z,87.85
2023-02-20T06:14:03.273Z,88.06
2023-02-20T06:15:03.287Z,87.85
2023-02-20T06:16:03.288Z,87.74
2023-02-20T06:17:03.250Z,87.74
2023-02-20T06:18:03.260Z,87.34
2023-02-20T06:19:03.247Z,87.34
2023-02-20T06:20:03.214Z,87.54
2023-02-20T06:21:03.208Z,87.44
2023-02-20T06:22:03.202Z,87.85
2023-02-20T06:23:03.184Z,87.65
2023-02-20T06:24:03.263Z,87.60
2023-02-20T06:25:03.168Z,87.40
2023-02-20T06:26:03.164Z,87.85
2023-02-20T06:27:03.163Z,87.74
2023-02-20T06:28:03.136Z,87.95
2023-02-20T06:29:03.143Z,87.65
2023-02-20T06:30:04.117Z,87.74
2023-02-20T06:31:03.118Z,87.74
2023-02-20T06:32:03.175Z,87.74
2023-02-20T06:33:03.102Z,88.06
2023-02-20T06:34:03.063Z,87.65
2023-02-20T06:35:03.084Z,87.85
2023-02-20T06:36:03.070Z,87.34
2023-02-20T06:37:03.115Z,87.54
2023-02-20T06:38:03.051Z,87.44
2023-02-20T06:39:03.046Z,87.44
2023-02-20T06:40:03.026Z,87.34
2023-02-20T06:41:03.020Z,87.74
2023-02-20T06:42:03.028Z,87.44
2023-02-20T06:43:02.993Z,87.65
2023-02-20T06:44:03.006Z,87.85
2023-02-20T06:45:02.997Z,87.95
2023-02-20T06:46:02.964Z,87.65
2023-02-20T06:47:02.977Z,87.74
2023-02-20T06:48:02.945Z,87.92
2023-02-20T06:49:02.961Z,86.47
2023-02-20T06:50:02.927Z,86.30
2023-02-20T06:51:02.926Z,86.68
2023-02-20T06:52:04.311Z,86.78
2023-02-20T06:53:03.925Z,86.22
2023-02-20T06:54:02.900Z,84.99
2023-02-20T06:55:02.875Z,84.43
2023-02-20T06:56:02.842Z,84.70
2023-02-20T06:57:02.848Z,84.80
2023-02-20T06:58:02.843Z,84.91
2023-02-20T06:59:02.854Z,83.98
2023-02-20T07:00:02.823Z,83.77
2023-02-20T07:01:02.873Z,83.91
2023-02-20T07:02:02.811Z,85.05
2023-02-20T07:03:02.800Z,84.74
2023-02-20T07:04:03.030Z,84.64
2023-02-20T07:05:02.786Z,84.49
2023-02-20T07:06:02.757Z,83.98
2023-02-20T07:07:02.760Z,83.67
2023-02-20T07:08:02.758Z,83.36
2023-02-20T07:09:02.744Z,83.47
2023-02-20T07:10:02.726Z,83.87
2023-02-20T07:11:02.728Z,83.36
2023-02-20T07:12:02.739Z,83.67
2023-02-20T07:13:02.725Z,83.67
2023-02-20T07:14:02.678Z,83.56
2023-02-20T07:15:02.672Z,83.32
2023-02-20T07:16:02.703Z,83.22
2023-02-20T07:17:02.667Z,82.46
2023-02-20T07:18:02.638Z,81.84
2023-02-20T07:19:02.694Z,82.15
2023-02-20T07:20:02.625Z,81.84
2023-02-20T07:21:02.650Z,82.25
2023-02-20T07:22:02.608Z,81.98
2023-02-20T07:23:02.590Z,82.05
2023-02-20T07:24:02.591Z,82.05
2023-02-20T07:25:02.569Z,82.60
2023-02-20T07:26:02.576Z,82.50
2023-02-20T07:27:02.568Z,83.22
2023-02-20T07:28:02.520Z,82.81
2023-02-20T07:29:02.549Z,82.70
2023-02-20T07:30:02.589Z,82.60
2023-02-20T07:31:02.543Z,82.19
2023-02-20T07:32:02.574Z,81.95
2023-02-20T07:33:02.509Z,81.49
2023-02-20T07:34:02.485Z,79.75
2023-02-20T07:35:05.620Z,79.57
2023-02-20T07:36:02.560Z,78.40
2023-02-20T07:37:02.503Z,78.44
2023-02-20T07:38:02.440Z,78.27
2023-02-20T07:39:02.469Z,77.34
2023-02-20T07:40:02.424Z,77.17
2023-02-20T07:41:02.457Z,76.65
2023-02-20T07:42:02.460Z,76.65
2023-02-20T07:43:02.390Z,75.79
2023-02-20T07:44:02.375Z,75.45
2023-02-20T07:45:02.367Z,74.87
2023-02-20T07:46:02.606Z,74.87
2023-02-20T07:47:02.419Z,75.32
2023-02-20T07:48:02.578Z,75.62
2023-02-20T07:49:02.331Z,76.38
2023-02-20T07:50:02.335Z,76.31
2023-02-20T07:51:02.311Z,77.34
2023-02-20T07:52:02.328Z,77.85
2023-02-20T07:53:02.288Z,77.23
2023-02-20T07:54:02.316Z,76.72
2023-02-20T07:55:02.312Z,77.10
2023-02-20T07:56:03.490Z,75.08
2023-02-20T07:57:02.265Z,74.63
2023-02-20T07:58:02.240Z,74.26
2023-02-20T07:59:02.227Z,74.22
2023-02-20T08:00:02.280Z,74.53
2023-02-20T08:01:02.274Z,74.29
2023-02-20T08:02:02.211Z,74.22
2023-02-20T08:03:02.268Z,74.57
2023-02-20T08:04:02.198Z,75.59
2023-02-20T08:05:02.196Z,76.07
2023-02-20T08:06:02.241Z,76.72
2023-02-20T08:07:02.142Z,77.23
2023-02-20T08:08:02.155Z,78.03
2023-02-20T08:09:02.122Z,78.64
2023-02-20T08:10:02.113Z,78.89
2023-02-20T08:11:09.201Z,78.92
2023-02-20T08:12:04.142Z,79.23
2023-02-20T08:13:02.138Z,79.95
2023-02-20T08:14:02.070Z,79.30
2023-02-20T08:15:02.095Z,80.05
2023-02-20T08:16:02.120Z,78.99
2023-02-20T08:17:02.057Z,79.23
2023-02-20T08:18:03.282Z,79.03
2023-02-20T08:19:02.150Z,79.54
2023-02-20T08:20:02.038Z,80.67
2023-02-20T08:21:01.997Z,79.95
2023-02-20T08:22:02.005Z,79.61
2023-02-20T08:23:01.984Z,79.33
2023-02-20T08:24:02.015Z,79.91
2023-02-20T08:25:01.983Z,80.33
2023-02-20T08:26:01.961Z,79.50
2023-02-20T08:27:01.980Z,78.75
2023-02-20T08:28:02.815Z,78.96
2023-02-20T08:29:01.945Z,78.81
2023-02-20T08:30:01.999Z,79.12
2023-02-20T08:31:01.968Z,78.20
2023-02-20T08:32:01.990Z,78.92
2023-02-20T08:33:01.907Z,78.54
2023-02-20T08:34:01.862Z,79.05
2023-02-20T08:35:01.858Z,78.81
2023-02-20T08:36:01.885Z,78.54
2023-02-20T08:37:01.844Z,79.12
2023-02-20T08:38:03.702Z,78.27
2023-02-20T08:39:02.834Z,77.27
2023-02-20T08:40:01.854Z,78.27
2023-02-20T08:41:01.820Z,78.71
2023-02-20T08:42:01.814Z,78.50
2023-02-20T08:43:01.789Z,78.50
2023-02-20T08:44:01.834Z,78.30
2023-02-20T08:45:01.767Z,78.81
2023-02-20T08:46:02.811Z,78.54
2023-02-20T08:47:01.766Z,79.05
2023-02-20T08:48:01.841Z,79.26
2023-02-20T08:49:01.768Z,79.63
2023-02-20T08:50:01.715Z,79.05
2023-02-20T08:51:01.726Z,78.96
2023-02-20T08:52:01.693Z,78.85
2023-02-20T08:53:01.704Z,79.53
2023-02-20T08:54:01.729Z,78.71
2023-02-20T08:55:01.693Z,78.92
2023-02-20T08:56:01.648Z,79.02
2023-02-20T08:57:01.637Z,78.40
2023-02-20T08:58:01.663Z,78.92
2023-02-20T08:59:01.613Z,78.71
2023-02-20T09:00:01.658Z,79.12
2023-02-20T09:01:01.744Z,78.81
2023-02-20T09:02:01.592Z,79.22
2023-02-20T09:03:01.708Z,79.74
2023-02-20T09:04:01.574Z,78.71
2023-02-20T09:05:01.593Z,79.39
2023-02-20T09:06:01.557Z,78.92
2023-02-20T09:07:01.552Z,79.33
2023-02-20T09:08:01.564Z,79.53
2023-02-20T09:09:01.518Z,78.81
2023-02-20T09:10:01.539Z,78.71
2023-02-20T09:11:01.494Z,79.19
2023-02-20T09:12:01.489Z,78.71
2023-02-20T09:13:01.480Z,78.81
2023-02-20T09:14:01.508Z,78.81
2023-02-20T09:15:01.466Z,79.22
2023-02-20T09:16:01.505Z,79.12
2023-02-20T09:17:01.464Z,79.12
2023-02-20T09:18:01.483Z,78.88
2023-02-20T09:19:01.455Z,78.98
2023-02-20T09:20:01.436Z,78.23
2023-02-20T09:21:01.453Z,76.89
2023-02-20T09:22:01.409Z,77.47
2023-02-20T09:23:01.379Z,78.05
2023-02-20T09:24:01.417Z,77.03
2023-02-20T09:25:01.400Z,76.17
2023-02-20T09:26:01.366Z,76.31
2023-02-20T09:27:01.336Z,76.48
2023-02-20T09:28:01.332Z,75.56
2023-02-20T09:29:01.336Z,74.77
2023-02-20T09:30:01.305Z,74.97
2023-02-20T09:31:01.307Z,74.43
2023-02-20T09:32:01.407Z,74.32
2023-02-20T09:33:01.265Z,73.88
2023-02-20T09:34:01.292Z,74.39
2023-02-20T09:35:01.267Z,73.16
2023-02-20T09:36:01.282Z,73.23
2023-02-20T09:37:01.276Z,72.58
2023-02-20T09:38:01.244Z,72.04
2023-02-20T09:39:01.223Z,71.39
2023-02-20T09:40:01.202Z,70.95
2023-02-20T09:41:01.208Z,70.72
2023-02-20T09:42:01.223Z,68.95
2023-02-20T09:43:01.170Z,69.49
2023-02-20T09:44:01.185Z,67.05
2023-02-20T09:45:01.185Z,66.94
2023-02-20T09:46:01.182Z,67.05
2023-02-20T09:47:01.171Z,67.63
2023-02-20T09:48:01.139Z,65.39
2023-02-20T09:49:01.143Z,65.19
2023-02-20T09:50:32.976Z,66.44
2023-02-20T09:51:01.092Z,66.36
2023-02-20T09:52:01.067Z,67.21
2023-02-20T09:53:01.112Z,66.80
2023-02-20T09:54:01.051Z,66.91
2023-02-20T09:55:01.056Z,66.57
2023-02-20T09:56:01.028Z,68.10
2023-02-20T09:57:01.043Z,66.67
2023-02-20T09:58:01.024Z,67.05
2023-02-20T09:59:00.998Z,65.55
2023-02-20T10:00:04.562Z,67.35
2023-02-20T10:01:00.978Z,64.81
2023-02-20T10:02:01.067Z,66.13
2023-02-20T10:03:01.036Z,66.23
2023-02-20T10:04:00.952Z,67.80
2023-02-20T10:05:02.059Z,65.19
2023-02-20T10:06:01.929Z,65.04
2023-02-20T10:07:00.932Z,65.14
2023-02-20T10:08:00.914Z,65.34
2023-02-20T10:09:00.899Z,65.04
2023-02-20T10:10:00.889Z,64.12
2023-02-20T10:11:00.912Z,63.20
2023-02-20T10:12:00.888Z,63.92
2023-02-20T10:13:00.855Z,63.54
2023-02-20T10:14:00.838Z,63.26
2023-02-20T10:15:00.858Z,63.16
2023-02-20T10:16:00.853Z,63.78
2023-02-20T10:17:00.815Z,63.57
2023-02-20T10:18:00.798Z,63.13
2023-02-20T10:19:00.824Z,63.85
2023-02-20T10:20:00.814Z,63.61
2023-02-20T10:21:00.787Z,61.40
2023-02-20T10:22:00.772Z,63.00
2023-02-20T10:23:00.753Z,62.49
2023-02-20T10:24:06.018Z,61.98
2023-02-20T10:25:01.811Z,62.16
2023-02-20T10:26:00.732Z,61.27
2023-02-20T10:27:00.735Z,62.36
2023-02-20T10:28:00.711Z,63.35
2023-02-20T10:29:00.701Z,61.21
2023-02-20T10:30:00.712Z,60.80
2023-02-20T10:31:00.744Z,60.91
2023-02-20T10:32:00.873Z,60.93
2023-02-20T10:33:00.676Z,61.65
2023-02-20T10:34:00.678Z,61.14
2023-02-20T10:35:00.636Z,61.88
2023-02-20T10:36:00.635Z,62.70
2023-02-20T10:37:00.619Z,63.28
2023-02-20T10:38:00.618Z,61.85
2023-02-20T10:39:00.601Z,61.54
2023-02-20T10:40:00.590Z,62.36
2023-02-20T10:41:00.600Z,62.23
2023-02-20T10:42:00.600Z,62.20
2023-02-20T10:43:00.580Z,61.38
2023-02-20T10:44:00.564Z,61.49
2023-02-20T10:45:00.571Z,61.49
2023-02-20T10:46:00.566Z,61.29
2023-02-20T10:47:00.565Z,61.90
2023-02-20T10:48:00.557Z,61.59
2023-02-20T10:49:00.507Z,62.17
2023-02-20T10:50:00.523Z,61.05
2023-02-20T10:51:00.494Z,61.29
2023-02-20T10:52:00.483Z,61.38
2023-02-20T10:53:00.476Z,61.15
2023-02-20T10:54:00.460Z,60.88
2023-02-20T10:55:00.463Z,59.45
2023-02-20T10:56:00.436Z,60.19
2023-02-20T10:57:00.441Z,60.60
2023-02-20T10:58:00.427Z,61.18
2023-02-20T10:59:00.412Z,60.88
2023-02-20T11:00:00.407Z,60.30
2023-02-20T11:01:00.436Z,59.89
2023-02-20T11:02:00.456Z,61.21
2023-02-20T11:03:00.373Z,61.14
2023-02-20T11:04:00.420Z,61.93
2023-02-20T11:05:00.342Z,61.75
2023-02-20T11:06:00.341Z,61.34
2023-02-20T11:07:02.306Z,61.54
2023-02-20T11:08:01.314Z,61.75
2023-02-20T11:09:00.330Z,61.98
2023-02-20T11:10:00.297Z,62.46
2023-02-20T11:11:00.295Z,62.16
2023-02-20T11:12:00.321Z,61.85
2023-02-20T11:13:00.276Z,61.54
2023-02-20T11:14:00.286Z,61.65
2023-02-20T11:15:00.285Z,61.93
2023-02-20T11:16:00.333Z,61.54
2023-02-20T11:17:01.127Z,60.55
2023-02-20T11:18:00.216Z,61.98
2023-02-20T11:19:00.211Z,61.98
2023-02-20T11:20:00.244Z,62.18
2023-02-20T11:21:00.186Z,61.75
2023-02-20T11:22:00.179Z,62.18
2023-02-20T11:23:00.165Z,61.57
2023-02-20T11:24:00.142Z,62.08
2023-02-20T11:25:00.165Z,62.56
2023-02-20T11:26:00.148Z,61.85
2023-02-20T11:27:00.130Z,61.65
2023-02-20T11:28:00.122Z,61.65
2023-02-20T11:29:00.132Z,62.02
2023-02-20T11:30:00.134Z,61.52
2023-02-20T11:31:00.148Z,61.75
2023-02-20T11:32:00.106Z,63.15
2023-02-20T11:33:00.074Z,63.24
2023-02-20T11:34:00.074Z,61.41
2023-02-20T11:35:00.073Z,61.41
2023-02-20T11:36:00.048Z,61.82
2023-02-20T11:37:01.026Z,61.93
2023-02-20T11:38:00.017Z,62.84
2023-02-20T11:39:00.009Z,62.02
2023-02-20T11:40:00.005Z,61.31
2023-02-20T11:41:00.011Z,61.52
2023-02-20T11:41:59.982Z,62.33
2023-02-20T11:42:59.961Z,63.12
2023-02-20T11:44:01.482Z,63.32
2023-02-20T11:45:00.950Z,61.99
2023-02-20T11:45:59.991Z,61.69
2023-02-20T11:46:59.925Z,62.40
2023-02-20T11:47:59.920Z,61.38
2023-02-20T11:48:59.911Z,61.29
2023-02-20T11:50:07.305Z,61.21
2023-02-20T11:51:01.915Z,62.02
2023-02-20T11:51:59.877Z,62.02
2023-02-20T11:52:59.867Z,61.82
2023-02-20T11:53:59.861Z,61.44
2023-02-20T11:54:59.847Z,61.61
2023-02-20T11:56:00.409Z,61.14
2023-02-20T11:57:00.841Z,63.07
2023-02-20T11:57:59.823Z,62.02
2023-02-20T11:58:59.844Z,62.33
2023-02-20T11:59:59.803Z,63.24
2023-02-20T12:00:59.803Z,62.02
2023-02-20T12:02:01.296Z,61.52
2023-02-20T12:03:00.801Z,62.51
2023-02-20T12:03:59.771Z,62.02
2023-02-20T12:04:59.746Z,62.02
2023-02-20T12:05:59.792Z,62.43
2023-02-20T12:06:59.724Z,63.35
2023-02-20T12:07:59.711Z,62.74
2023-02-20T12:09:01.979Z,63.76
2023-02-20T12:10:00.729Z,62.74
2023-02-20T12:10:59.715Z,63.86
2023-02-20T12:11:59.674Z,63.65
2023-02-20T12:12:59.688Z,63.48
2023-02-20T12:13:59.667Z,62.74
2023-02-20T12:14:59.655Z,63.56
2023-02-20T12:15:59.708Z,63.73
2023-02-20T12:16:59.642Z,63.12
2023-02-20T12:17:59.615Z,63.22
2023-02-20T12:18:59.630Z,63.12
2023-02-20T12:19:59.608Z,61.90
2023-02-20T12:20:59.633Z,63.22
2023-02-20T12:21:59.593Z,62.92
2023-02-20T12:22:59.577Z,63.39
2023-02-20T12:23:59.563Z,62.58
2023-02-20T12:24:59.546Z,61.83
2023-02-20T12:25:59.540Z,63.16
2023-02-20T12:26:59.550Z,62.35
2023-02-20T12:27:59.536Z,62.04
2023-02-20T12:28:59.508Z,62.01
2023-02-20T12:29:59.505Z,61.81
2023-02-20T12:30:59.497Z,61.33
2023-02-20T12:31:59.606Z,61.74
2023-02-20T12:32:59.486Z,62.68
2023-02-20T12:33:59.483Z,63.70
2023-02-20T12:34:59.473Z,63.42
2023-02-20T12:35:59.444Z,63.29
2023-02-20T12:36:59.434Z,62.71
2023-02-20T12:37:59.451Z,62.92
2023-02-20T12:38:59.445Z,63.53
2023-02-20T12:39:59.405Z,63.53
2023-02-20T12:40:59.395Z,63.22
2023-02-20T12:41:59.388Z,63.39
2023-02-20T12:42:59.374Z,63.39
2023-02-20T12:44:12.460Z,63.29
2023-02-20T12:45:01.369Z,63.09
2023-02-20T12:45:59.362Z,62.88
2023-02-20T12:46:59.390Z,61.94
2023-02-20T12:47:59.341Z,61.97
2023-02-20T12:48:59.326Z,63.49
2023-02-20T12:49:59.308Z,63.59
2023-02-20T12:50:59.292Z,62.98
2023-02-20T12:51:59.283Z,63.46
2023-02-20T12:52:59.286Z,63.02
2023-02-20T12:53:59.294Z,63.13